Flight Track Log - Related Links

Times and Time Zones

All times are in EDT time to prevent confusion due to time zone crossing. See the SKW6345 flight status page for this flight to view local times or setup timezone preferences in your user account.


Time Position Orientation Groundspeed Altitude Reporting Facility
EDT Latitude Longitude Course Direction KTS MPH feet Rate Location/Type
Mon 10:06:58 PM 45.7989 -111.2183 283° West 219 252 6,000  Level Salt Lake Center
Mon 10:08:00 PM 45.7722 -111.2997 245° Southwest 231 266 8,300 1,951 Climbing Salt Lake Center
Mon 10:09:00 PM 45.7478 -111.6982 288° West  Level FlightAware Approximate
Mon 10:09:01 PM 45.7403 -111.3950 244° Southwest 246 283 10,000  Level Salt Lake Center
Mon 10:10:00 PM 45.7792 -111.8397 288° West  Level FlightAware Approximate
Mon 10:10:03 PM 45.7136 -111.5028 251° West 273 314 12,200  Level Salt Lake Center
Mon 10:11:00 PM 45.8119 -111.9807 290° West  Level FlightAware Approximate
Mon 10:11:05 PM 45.6708 -111.5989 238° Southwest 286 329 14,800  Level Salt Lake Center
Mon 10:12:00 PM 45.8427 -112.1225 283° West  Level FlightAware Approximate
Mon 10:12:07 PM 45.6292 -111.6956 238° Southwest 286 329 16,300  Level Salt Lake Center
Mon 10:13:08 PM 45.5819 -111.8014 238° Southwest 308 354 17,300 1,073 Climbing Salt Lake Center
Mon 10:14:10 PM 45.5214 -111.9386 238° Southwest 335 386 18,500 1,113 Climbing Salt Lake Center
Mon 10:15:12 PM 45.4692 -112.0542 237° Southwest 346 398 19,600 1,161 Climbing Salt Lake Center
Mon 10:16:14 PM 45.4167 -112.1725 238° Southwest 352 405 20,900 1,268 Climbing Salt Lake Center
Mon 10:17:15 PM 45.3619 -112.2936 237° Southwest 351 404 22,200 1,073 Climbing Salt Lake Center
Mon 10:18:17 PM 45.3108 -112.4058 237° Southwest 353 406 23,100 823 Climbing Salt Lake Center
Mon 10:19:19 PM 45.2494 -112.5397 237° Southwest 361 415 23,900 732 Climbing Salt Lake Center
Mon 10:20:20 PM 45.1956 -112.6594 237° Southwest 372 428 24,600 732 Climbing Salt Lake Center
Mon 10:21:22 PM 45.1328 -112.7978 237° Southwest 375 432 25,400 726 Climbing Salt Lake Center
Mon 10:22:24 PM 45.0758 -112.9197 237° Southwest 385 443 26,100 878 Climbing Salt Lake Center
Mon 10:23:25 PM 45.0114 -113.0608 237° Southwest 384 442 27,200 976 Climbing Salt Lake Center
Mon 10:24:27 PM 44.9544 -113.1789 236° Southwest 381 438 28,100 823 Climbing Salt Lake Center
Mon 10:25:29 PM 44.9011 -113.2969 238° Southwest 375 432 28,900 829 Climbing Salt Lake Center
Mon 10:26:30 PM 44.8358 -113.4353 236° Southwest 380 437 29,800 829 Climbing Salt Lake Center
Mon 10:27:32 PM 44.7800 -113.5511 236° Southwest 376 433 30,600 774 Climbing Salt Lake Center
Mon 10:28:34 PM 44.7194 -113.6861 238° Southwest 367 422 31,400 677 Climbing Salt Lake Center
Mon 10:29:36 PM 44.6639 -113.7986 235° Southwest 364 419 32,000 293 Climbing Salt Lake Center
Mon 10:30:37 PM 44.6019 -113.9333 237° Southwest 370 426 32,000  Level Salt Lake Center
Mon 10:31:39 PM 44.5417 -114.0581 236° Southwest 376 433 32,000  Level Salt Lake Center
Mon 10:32:41 PM 44.4853 -114.1786 237° Southwest 384 442 32,000  Level Salt Lake Center
Mon 10:33:42 PM 44.4161 -114.3217 236° Southwest 393 452 32,000  Level Salt Lake Center
Mon 10:34:44 PM 44.3561 -114.4453 236° Southwest 399 459 32,000  Level Salt Lake Center
Mon 10:35:45 PM 44.2947 -114.5694 235° Southwest 403 464 32,000  Level Salt Lake Center
Mon 10:36:47 PM 44.2225 -114.7144 235° Southwest 406 467 32,000  Level Salt Lake Center
Mon 10:37:49 PM 44.1619 -114.8392 236° Southwest 406 467 32,000  Level Salt Lake Center
Mon 10:38:50 PM 44.0908 -114.9833 236° Southwest 404 465 32,000  Level Salt Lake Center
Mon 10:39:52 PM 44.0272 -115.1111 235° Southwest 415 478 32,000  Level Salt Lake Center
Mon 10:40:54 PM 43.9658 -115.2353 236° Southwest 405 466 32,000  Level Salt Lake Center
Mon 10:41:55 PM 43.8928 -115.3803 235° Southwest 409 471 32,000  Level Salt Lake Center
Mon 10:42:57 PM 43.8300 -115.5047 235° Southwest 409 471 32,000  Level Salt Lake Center
Mon 10:43:59 PM 43.7561 -115.6494 235° Southwest 410 472 32,000  Level Salt Lake Center
Mon 10:45:00 PM 43.6944 -115.7750 236° Southwest 411 473 32,000  Level Salt Lake Center
Mon 10:46:02 PM 43.6306 -115.9006 235° Southwest 415 478 32,000  Level Salt Lake Center
Mon 10:47:04 PM 43.5561 -116.0456 235° Southwest 414 476 32,000  Level Salt Lake Center
Mon 10:48:05 PM 43.4908 -116.1703 234° Southwest 417 480 32,000  Level Salt Lake Center
Mon 10:49:07 PM 43.4169 -116.3158 235° Southwest 417 480 32,000  Level Salt Lake Center
Mon 10:50:09 PM 43.3525 -116.4394 234° Southwest 416 479 32,000  Level Salt Lake Center
Mon 10:51:10 PM 43.2875 -116.5617 234° Southwest 412 474 32,000  Level Salt Lake Center
Mon 10:52:12 PM 43.2117 -116.7072 234° Southwest 417 480 32,000  Level Salt Lake Center
Mon 10:53:14 PM 43.1469 -116.8322 235° Southwest 418 481 32,000  Level Salt Lake Center
Mon 10:54:15 PM 43.0697 -116.9783 234° Southwest 422 486 32,000  Level Salt Lake Center
Mon 10:55:17 PM 43.0042 -117.1022 234° Southwest 420 483 32,000  Level Salt Lake Center
Mon 10:56:18 PM 42.9269 -117.2467 234° Southwest 423 487 32,000  Level Salt Lake Center
Mon 10:57:20 PM 42.8606 -117.3678 233° Southwest 418 481 32,000  Level Salt Lake Center
Mon 10:58:22 PM 42.7939 -117.4925 234° Southwest 423 487 32,000  Level Salt Lake Center
Mon 10:59:23 PM 42.7164 -117.6364 234° Southwest 424 488 32,000  Level Salt Lake Center
Mon 11:00:25 PM 42.6503 -117.7603 234° Southwest 422 486 32,000  Level Salt Lake Center
Mon 11:01:26 PM 42.5572 -117.8856 225° Southwest 426 490 32,000  Level Salt Lake Center
Mon 11:02:28 PM 42.4547 -117.9514 205° Southwest 428 493 32,000  Level Salt Lake Center
Mon 11:03:29 PM 42.3556 -118.0267 209° Southwest 431 496 32,000  Level Salt Lake Center
Mon 11:04:31 PM 42.2619 -118.1403 222° Southwest 425 489 32,000  Level Salt Lake Center
Mon 11:05:32 PM 42.1786 -118.2436 223° Southwest 425 489 32,000  Level Salt Lake Center
Mon 11:06:34 PM 42.0786 -118.3653 222° Southwest 433 498 32,000  Level Salt Lake Center
Mon 11:07:35 PM 41.9944 -118.4683 222° Southwest 429 494 32,000  Level Salt Lake Center
Mon 11:08:37 PM 41.8956 -118.5881 222° Southwest 430 495 32,000  Level Salt Lake Center
Mon 11:09:38 PM 41.8103 -118.6903 222° Southwest 430 495 32,000  Level Salt Lake Center
Mon 11:10:40 PM 41.7106 -118.8100 222° Southwest 431 496 32,000  Level Salt Lake Center
Mon 11:11:41 PM 41.6250 -118.9133 222° Southwest 432 497 32,000  Level Salt Lake Center
Mon 11:12:42 PM 41.5386 -119.0181 222° Southwest 436 502 32,000  Level Salt Lake Center
Mon 11:14:21 PM 41.3819 -119.2033 222° Southwest 432 497 32,000  Level Salt Lake Center
Mon 11:15:22 PM 41.2950 -119.3067 222° Southwest 436 502 32,000  Level Salt Lake Center
Mon 11:16:23 PM 41.2081 -119.4097 222° Southwest 437 503 32,000  Level Salt Lake Center
Mon 11:16:53 PM 41.1633 -119.4625 222° Southwest 436 502 32,000  Level Seattle Center
Mon 11:17:46 PM 41.0736 -119.5669 221° Southwest 436 502 32,000  Level Oakland Center
Mon 11:18:55 PM 40.9814 -119.6750 222° Southwest 435 501 32,000  Level Seattle Center
Mon 11:19:56 PM 40.8906 -119.7817 222° Southwest 436 502 32,000  Level Seattle Center
Mon 11:20:50 PM 40.7956 -119.8892 221° Southwest 440 506 32,000  Level Oakland Center
Mon 11:21:51 PM 40.7081 -119.9906 221° Southwest 434 499 32,000  Level Oakland Center
Mon 11:22:52 PM 40.6144 -120.0986 221° Southwest 439 505 32,000  Level Oakland Center
Mon 11:23:53 PM 40.5214 -120.2058 221° Southwest 440 506 32,000  Level Oakland Center
Mon 11:24:54 PM 40.4286 -120.3100 221° Southwest 440 506 32,000  Level Oakland Center
Mon 11:26:01 PM 40.3208 -120.4347 221° Southwest 435 501 32,000  Level Seattle Center
Mon 11:27:01 PM 40.2261 -120.5408 221° Southwest 442 509 32,000  Level Seattle Center
Mon 11:27:57 PM 40.1303 -120.6467 220° Southwest 444 511 32,000  Level Oakland Center
Mon 11:28:59 PM 40.0369 -120.7531 221° Southwest 446 513 32,000  Level Oakland Center
Mon 11:30:00 PM 39.9442 -120.8567 221° Southwest 447 514 32,000  Level Oakland Center
Mon 11:31:01 PM 39.8497 -120.9614 220° Southwest 447 514 32,000  Level Oakland Center
Mon 11:32:02 PM 39.7544 -121.0664 220° Southwest 450 518 32,000  Level Oakland Center
Mon 11:33:03 PM 39.6578 -121.1739 221° Southwest 448 516 32,000  Level Oakland Center
Mon 11:34:04 PM 39.5625 -121.2783 220° Southwest 448 516 32,000  Level Oakland Center
Mon 11:35:05 PM 39.4703 -121.3811 221° Southwest 451 519 32,000  Level Oakland Center
Mon 11:36:06 PM 39.3758 -121.4853 220° Southwest 450 518 32,000  Level Oakland Center
Mon 11:37:07 PM 39.2803 -121.5881 220° Southwest 451 519 32,000  Level Oakland Center
Mon 11:38:08 PM 39.1667 -121.7128 220° Southwest 449 517 32,000  Level Oakland Center
Mon 11:39:09 PM 39.0714 -121.8161 220° Southwest 450 518 32,000  Level Oakland Center
Mon 11:40:10 PM 38.9764 -121.9181 220° Southwest 448 516 32,000  Level Oakland Center
Mon 11:41:11 PM 38.8817 -122.0200 220° Southwest 446 513 32,000  Level Oakland Center
Mon 11:42:12 PM 38.7867 -122.1211 220° Southwest 446 513 32,000  Level Oakland Center
Mon 11:43:13 PM 38.6931 -122.2219 220° Southwest 443 510 32,000 -197 Level Oakland Center
Mon 11:44:14 PM 38.5994 -122.3206 219° Southwest 448 516 31,600 -1,672 Descending Oakland Center
Mon 11:45:15 PM 38.5031 -122.4228 220° Southwest 451 519 28,600 -3,197 Descending Oakland Center
Mon 11:46:16 PM 38.3908 -122.5419 220° Southwest 441 507 25,100 -3,197 Descending Oakland Center
Mon 11:47:17 PM 38.2981 -122.6369 219° Southwest 433 498 22,100 -3,000 Descending Oakland Center
Mon 11:48:18 PM 38.1914 -122.6586 189° South 396 456 19,000 -3,000 Descending Oakland Center
Mon 11:49:19 PM 38.0892 -122.6644 183° South 375 432 16,000 -2,902 Descending Oakland Center
Mon 11:50:20 PM 37.9875 -122.6689 182° South 372 428 13,100 -2,459 Descending Oakland Center
Mon 11:51:21 PM 37.8919 -122.6594 176° South 367 422 11,000 -1,326 Descending Oakland Center
Mon 11:51:55 PM 37.8333 -122.6000 141° Southeast 314 361 11,000 64 Level Northern Cal TRACON
Mon 11:52:55 PM 37.7833 -122.5500 142° Southeast 247 284 11,100 50 Climbing Northern Cal TRACON
Mon 11:53:55 PM 37.7333 -122.5000 142° Southeast 242 278 11,100  Level Northern Cal TRACON
Mon 11:54:55 PM 37.6833 -122.4333 133° Southeast 245 282 11,100  Level Northern Cal TRACON
Mon 11:55:55 PM 37.6333 -122.3833 142° Southeast 211 243 11,100 -100 Level Northern Cal TRACON
Mon 11:56:55 PM 37.5833 -122.3500 152° Southeast 210 242 10,900 -632 Descending Northern Cal TRACON
Mon 11:57:49 PM 37.5333 -122.3167 152° Southeast 206 237 9,900 -1,158 Descending Northern Cal TRACON
Mon 11:58:49 PM 37.4833 -122.3000 165° South 200 230 8,700 -1,286 Descending Northern Cal TRACON
Mon 11:59:55 PM 37.4333 -122.3167 195° South 196 226 7,200 -1,250 Descending Northern Cal TRACON
Tue 12:00:49 AM 37.4000 -122.2667 130° Southeast 193 222 6,200 -579 Descending Northern Cal TRACON
Tue 12:01:49 AM 37.3667 -122.2000 122° Southeast 198 228 6,100 -118 Descending Northern Cal TRACON
Tue 12:02:31 AM 37.3750 -122.1736 68° East 203 234 6,000 -408 Descending Oakland Center
Tue 12:03:32 AM 37.4086 -122.1164 54° Northeast 206 237 5,400 -984 Descending Oakland Center
Tue 12:04:33 AM 37.4525 -122.0628 44° Northeast 189 217 4,000 -689 Descending Oakland Center
Tue 12:05:34 AM 37.4947 -122.0811 341° North 185 213 4,000 -295 Level Oakland Center
Tue 12:06:35 AM 37.5197 -122.1300 303° West 170 196 3,400 -1,033 Descending Oakland Center
Tue 12:07:36 AM 37.5386 -122.1842 294° West 169 194 1,900 -787 Descending Oakland Center
Tue 12:08:37 AM 37.5608 -122.2339 299° West 167 192 1,800 -98 Descending Oakland Center
Tue 12:09:38 AM 37.5792 -122.2778 298° West 155 178 1,700 -492 Descending Oakland Center
Tue 12:10:39 AM 37.5967 -122.3186 298° West 143 165 800 -738 Descending Oakland Center
Tue 12:11:40 AM 37.6125 -122.3553 299° West 132 152 200 -590 Descending Oakland Center

Login

Don't have an account? Register now (free) for customized features, flight alerts, and more!